sensor_id;sensor_type;location;lat;lon;timestamp;P1;durP1;ratioP1;P2;durP2;ratioP2
52306;SDS011;38249;48.920;12.882;2022-12-18T00:00:04;19.05;;;9.40;;
52306;SDS011;38249;48.920;12.882;2022-12-18T00:02:32;20.58;;;9.68;;
52306;SDS011;38249;48.920;12.882;2022-12-18T00:04:58;16.70;;;8.77;;
52306;SDS011;38249;48.920;12.882;2022-12-18T00:07:25;19.08;;;8.80;;
52306;SDS011;38249;48.920;12.882;2022-12-18T00:09:51;17.15;;;8.40;;
52306;SDS011;38249;48.920;12.882;2022-12-18T00:12:18;15.65;;;8.63;;
52306;SDS011;38249;48.920;12.882;2022-12-18T00:14:46;15.13;;;7.53;;
52306;SDS011;38249;48.920;12.882;2022-12-18T00:17:12;19.27;;;7.70;;
52306;SDS011;38249;48.920;12.882;2022-12-18T00:19:39;14.85;;;7.45;;
52306;SDS011;38249;48.920;12.882;2022-12-18T00:22:05;18.42;;;8.23;;
52306;SDS011;38249;48.920;12.882;2022-12-18T00:24:32;17.80;;;9.18;;
52306;SDS011;38249;48.920;12.882;2022-12-18T00:26:58;19.40;;;9.93;;
52306;SDS011;38249;48.920;12.882;2022-12-18T00:29:25;22.77;;;10.27;;
52306;SDS011;38249;48.920;12.882;2022-12-18T00:31:53;19.77;;;9.52;;
52306;SDS011;38249;48.920;12.882;2022-12-18T00:34:19;22.55;;;10.80;;
52306;SDS011;38249;48.920;12.882;2022-12-18T00:36:47;24.02;;;11.38;;
52306;SDS011;38249;48.920;12.882;2022-12-18T00:39:14;21.60;;;10.18;;
52306;SDS011;38249;48.920;12.882;2022-12-18T00:41:40;26.38;;;11.40;;
52306;SDS011;38249;48.920;12.882;2022-12-18T00:44:24;18.83;;;9.88;;
52306;SDS011;38249;48.920;12.882;2022-12-18T00:46:52;16.92;;;8.43;;
52306;SDS011;38249;48.920;12.882;2022-12-18T00:49:19;19.63;;;9.85;;
52306;SDS011;38249;48.920;12.882;2022-12-18T00:51:46;23.02;;;10.52;;
52306;SDS011;38249;48.920;12.882;2022-12-18T00:54:14;23.58;;;10.77;;
52306;SDS011;38249;48.920;12.882;2022-12-18T00:56:40;25.13;;;11.82;;
52306;SDS011;38249;48.920;12.882;2022-12-18T00:59:07;33.35;;;14.18;;
52306;SDS011;38249;48.920;12.882;2022-12-18T01:01:33;36.20;;;15.32;;
52306;SDS011;38249;48.920;12.882;2022-12-18T01:04:02;30.95;;;13.95;;
52306;SDS011;38249;48.920;12.882;2022-12-18T01:06:29;31.63;;;13.50;;
52306;SDS011;38249;48.920;12.882;2022-12-18T01:08:56;32.97;;;14.55;;
52306;SDS011;38249;48.920;12.882;2022-12-18T01:11:23;36.45;;;15.77;;
52306;SDS011;38249;48.920;12.882;2022-12-18T01:13:51;32.17;;;15.13;;
52306;SDS011;38249;48.920;12.882;2022-12-18T01:16:18;28.40;;;13.98;;
52306;SDS011;38249;48.920;12.882;2022-12-18T01:18:44;32.75;;;14.63;;
52306;SDS011;38249;48.920;12.882;2022-12-18T01:21:13;31.58;;;14.13;;
52306;SDS011;38249;48.920;12.882;2022-12-18T01:23:41;36.38;;;13.60;;
52306;SDS011;38249;48.920;12.882;2022-12-18T01:26:08;31.30;;;13.60;;
52306;SDS011;38249;48.920;12.882;2022-12-18T01:28:36;28.88;;;13.00;;
52306;SDS011;38249;48.920;12.882;2022-12-18T01:31:13;32.65;;;13.82;;
52306;SDS011;38249;48.920;12.882;2022-12-18T01:33:41;26.63;;;11.95;;
52306;SDS011;38249;48.920;12.882;2022-12-18T01:36:13;28.90;;;13.30;;
52306;SDS011;38249;48.920;12.882;2022-12-18T01:38:42;26.15;;;12.85;;
52306;SDS011;38249;48.920;12.882;2022-12-18T01:41:09;25.33;;;11.40;;
52306;SDS011;38249;48.920;12.882;2022-12-18T01:43:43;23.23;;;11.10;;
52306;SDS011;38249;48.920;12.882;2022-12-18T01:46:11;27.05;;;12.68;;
52306;SDS011;38249;48.920;12.882;2022-12-18T01:48:37;25.67;;;12.93;;
52306;SDS011;38249;48.920;12.882;2022-12-18T01:51:06;27.85;;;12.13;;
52306;SDS011;38249;48.920;12.882;2022-12-18T01:53:36;26.88;;;12.48;;
52306;SDS011;38249;48.920;12.882;2022-12-18T01:56:05;25.77;;;11.85;;
52306;SDS011;38249;48.920;12.882;2022-12-18T01:58:33;22.38;;;10.27;;
52306;SDS011;38249;48.920;12.882;2022-12-18T02:01:05;21.15;;;9.45;;
52306;SDS011;38249;48.920;12.882;2022-12-18T02:03:32;20.90;;;10.55;;
52306;SDS011;38249;48.920;12.882;2022-12-18T02:06:00;18.55;;;8.90;;
52306;SDS011;38249;48.920;12.882;2022-12-18T02:08:31;20.90;;;9.38;;
52306;SDS011;38249;48.920;12.882;2022-12-18T02:11:05;22.77;;;10.45;;
52306;SDS011;38249;48.920;12.882;2022-12-18T02:13:38;24.05;;;10.73;;
52306;SDS011;38249;48.920;12.882;2022-12-18T02:16:13;23.67;;;11.00;;
52306;SDS011;38249;48.920;12.882;2022-12-18T02:18:48;18.77;;;9.93;;
52306;SDS011;38249;48.920;12.882;2022-12-18T02:21:23;21.50;;;10.65;;
52306;SDS011;38249;48.920;12.882;2022-12-18T02:23:56;20.27;;;8.93;;
52306;SDS011;38249;48.920;12.882;2022-12-18T02:26:40;19.90;;;8.98;;
52306;SDS011;38249;48.920;12.882;2022-12-18T02:29:11;21.10;;;9.65;;
52306;SDS011;38249;48.920;12.882;2022-12-18T02:31:43;22.25;;;11.25;;
52306;SDS011;38249;48.920;12.882;2022-12-18T02:34:13;24.60;;;10.27;;
52306;SDS011;38249;48.920;12.882;2022-12-18T02:36:42;28.17;;;11.50;;
52306;SDS011;38249;48.920;12.882;2022-12-18T02:39:11;25.83;;;12.35;;
52306;SDS011;38249;48.920;12.882;2022-12-18T02:41:41;34.47;;;14.23;;
52306;SDS011;38249;48.920;12.882;2022-12-18T02:44:09;34.00;;;15.07;;
52306;SDS011;38249;48.920;12.882;2022-12-18T02:46:37;34.08;;;13.95;;
52306;SDS011;38249;48.920;12.882;2022-12-18T02:49:14;37.20;;;14.50;;
52306;SDS011;38249;48.920;12.882;2022-12-18T02:51:52;34.33;;;14.23;;
52306;SDS011;38249;48.920;12.882;2022-12-18T02:54:25;36.00;;;13.30;;
52306;SDS011;38249;48.920;12.882;2022-12-18T02:57:05;33.78;;;14.38;;
52306;SDS011;38249;48.920;12.882;2022-12-18T02:59:41;34.15;;;15.85;;
52306;SDS011;38249;48.920;12.882;2022-12-18T03:02:18;34.40;;;16.23;;
52306;SDS011;38249;48.920;12.882;2022-12-18T03:04:49;36.08;;;14.68;;
52306;SDS011;38249;48.920;12.882;2022-12-18T03:07:27;38.20;;;14.48;;
52306;SDS011;38249;48.920;12.882;2022-12-18T03:10:09;37.10;;;14.13;;
52306;SDS011;38249;48.920;12.882;2022-12-18T03:12:41;39.05;;;14.15;;
52306;SDS011;38249;48.920;12.882;2022-12-18T03:15:13;34.72;;;14.73;;
52306;SDS011;38249;48.920;12.882;2022-12-18T03:17:44;36.28;;;13.32;;
52306;SDS011;38249;48.920;12.882;2022-12-18T03:20:16;34.28;;;14.77;;
52306;SDS011;38249;48.920;12.882;2022-12-18T03:22:46;31.75;;;13.18;;
52306;SDS011;38249;48.920;12.882;2022-12-18T03:25:16;28.08;;;13.45;;
52306;SDS011;38249;48.920;12.882;2022-12-18T03:27:46;33.97;;;14.68;;
52306;SDS011;38249;48.920;12.882;2022-12-18T03:30:17;34.92;;;13.57;;
52306;SDS011;38249;48.920;12.882;2022-12-18T03:32:44;31.70;;;13.52;;
52306;SDS011;38249;48.920;12.882;2022-12-18T03:35:16;32.25;;;13.55;;
52306;SDS011;38249;48.920;12.882;2022-12-18T03:37:46;28.83;;;13.10;;
52306;SDS011;38249;48.920;12.882;2022-12-18T03:40:13;29.80;;;13.40;;
52306;SDS011;38249;48.920;12.882;2022-12-18T03:42:42;34.72;;;15.38;;
52306;SDS011;38249;48.920;12.882;2022-12-18T03:45:18;37.25;;;15.90;;
52306;SDS011;38249;48.920;12.882;2022-12-18T03:47:51;27.60;;;12.68;;
52306;SDS011;38249;48.920;12.882;2022-12-18T03:50:26;26.50;;;12.05;;
52306;SDS011;38249;48.920;12.882;2022-12-18T03:55:32;24.80;;;10.60;;
52306;SDS011;38249;48.920;12.882;2022-12-18T03:58:02;28.05;;;12.25;;
52306;SDS011;38249;48.920;12.882;2022-12-18T04:00:30;32.15;;;13.43;;
52306;SDS011;38249;48.920;12.882;2022-12-18T04:02:58;28.15;;;12.55;;
52306;SDS011;38249;48.920;12.882;2022-12-18T04:05:27;30.60;;;12.77;;
52306;SDS011;38249;48.920;12.882;2022-12-18T04:07:55;30.35;;;14.15;;
52306;SDS011;38249;48.920;12.882;2022-12-18T04:10:22;26.00;;;12.05;;
52306;SDS011;38249;48.920;12.882;2022-12-18T04:12:49;28.48;;;13.95;;
52306;SDS011;38249;48.920;12.882;2022-12-18T04:15:17;33.92;;;15.05;;
52306;SDS011;38249;48.920;12.882;2022-12-18T04:17:46;33.28;;;15.35;;
52306;SDS011;38249;48.920;12.882;2022-12-18T04:20:14;30.00;;;13.55;;
52306;SDS011;38249;48.920;12.882;2022-12-18T04:22:41;32.78;;;13.35;;
52306;SDS011;38249;48.920;12.882;2022-12-18T04:25:08;26.70;;;12.05;;
52306;SDS011;38249;48.920;12.882;2022-12-18T04:27:35;38.30;;;14.35;;
52306;SDS011;38249;48.920;12.882;2022-12-18T04:30:01;30.05;;;12.93;;
52306;SDS011;38249;48.920;12.882;2022-12-18T04:32:30;29.20;;;13.52;;
52306;SDS011;38249;48.920;12.882;2022-12-18T04:34:56;33.78;;;14.27;;
52306;SDS011;38249;48.920;12.882;2022-12-18T04:37:23;30.95;;;13.27;;
52306;SDS011;38249;48.920;12.882;2022-12-18T04:39:49;26.10;;;12.55;;
52306;SDS011;38249;48.920;12.882;2022-12-18T04:42:16;26.90;;;12.68;;
52306;SDS011;38249;48.920;12.882;2022-12-18T04:44:42;43.22;;;22.42;;
52306;SDS011;38249;48.920;12.882;2022-12-18T04:47:09;31.35;;;13.48;;
52306;SDS011;38249;48.920;12.882;2022-12-18T04:49:37;27.13;;;10.77;;
52306;SDS011;38249;48.920;12.882;2022-12-18T04:52:04;26.90;;;11.75;;
52306;SDS011;38249;48.920;12.882;2022-12-18T04:54:33;23.25;;;10.85;;
52306;SDS011;38249;48.920;12.882;2022-12-18T04:56:59;24.48;;;13.13;;
52306;SDS011;38249;48.920;12.882;2022-12-18T04:59:26;25.48;;;11.93;;
52306;SDS011;38249;48.920;12.882;2022-12-18T05:01:52;23.27;;;10.75;;
52306;SDS011;38249;48.920;12.882;2022-12-18T05:04:19;25.73;;;10.85;;
52306;SDS011;38249;48.920;12.882;2022-12-18T05:06:47;30.80;;;12.45;;
52306;SDS011;38249;48.920;12.882;2022-12-18T05:09:13;23.38;;;11.00;;
52306;SDS011;38249;48.920;12.882;2022-12-18T05:11:40;23.10;;;10.60;;
52306;SDS011;38249;48.920;12.882;2022-12-18T05:14:07;23.38;;;10.90;;
52306;SDS011;38249;48.920;12.882;2022-12-18T05:16:33;21.95;;;9.30;;
52306;SDS011;38249;48.920;12.882;2022-12-18T05:19:00;23.33;;;9.75;;
52306;SDS011;38249;48.920;12.882;2022-12-18T05:21:26;21.95;;;10.18;;
52306;SDS011;38249;48.920;12.882;2022-12-18T05:23:54;23.17;;;10.30;;
52306;SDS011;38249;48.920;12.882;2022-12-18T05:26:20;22.33;;;11.63;;
52306;SDS011;38249;48.920;12.882;2022-12-18T05:28:47;25.27;;;12.02;;
52306;SDS011;38249;48.920;12.882;2022-12-18T05:31:14;24.73;;;11.20;;
52306;SDS011;38249;48.920;12.882;2022-12-18T05:33:40;26.10;;;10.73;;
52306;SDS011;38249;48.920;12.882;2022-12-18T05:36:08;25.42;;;12.45;;
52306;SDS011;38249;48.920;12.882;2022-12-18T05:38:37;20.52;;;11.00;;
52306;SDS011;38249;48.920;12.882;2022-12-18T05:41:06;24.40;;;11.13;;
52306;SDS011;38249;48.920;12.882;2022-12-18T05:43:33;20.25;;;8.68;;
52306;SDS011;38249;48.920;12.882;2022-12-18T05:46:03;17.08;;;8.63;;
52306;SDS011;38249;48.920;12.882;2022-12-18T05:48:30;16.55;;;8.95;;
52306;SDS011;38249;48.920;12.882;2022-12-18T05:51:02;14.75;;;7.72;;
52306;SDS011;38249;48.920;12.882;2022-12-18T05:53:30;14.05;;;7.32;;
52306;SDS011;38249;48.920;12.882;2022-12-18T05:55:59;14.75;;;6.72;;
52306;SDS011;38249;48.920;12.882;2022-12-18T05:58:28;12.10;;;7.20;;
52306;SDS011;38249;48.920;12.882;2022-12-18T06:00:54;18.73;;;9.40;;
52306;SDS011;38249;48.920;12.882;2022-12-18T06:03:21;13.23;;;7.38;;
52306;SDS011;38249;48.920;12.882;2022-12-18T06:05:47;12.38;;;6.40;;
52306;SDS011;38249;48.920;12.882;2022-12-18T06:08:14;14.68;;;6.85;;
52306;SDS011;38249;48.920;12.882;2022-12-18T06:10:41;14.23;;;6.40;;
52306;SDS011;38249;48.920;12.882;2022-12-18T06:13:08;11.43;;;6.82;;
52306;SDS011;38249;48.920;12.882;2022-12-18T06:15:37;14.93;;;6.93;;
52306;SDS011;38249;48.920;12.882;2022-12-18T06:18:04;12.13;;;6.53;;
52306;SDS011;38249;48.920;12.882;2022-12-18T06:20:30;12.38;;;6.18;;
52306;SDS011;38249;48.920;12.882;2022-12-18T06:22:57;20.25;;;9.95;;
52306;SDS011;38249;48.920;12.882;2022-12-18T06:25:23;23.95;;;12.80;;
52306;SDS011;38249;48.920;12.882;2022-12-18T06:27:50;24.00;;;11.93;;
52306;SDS011;38249;48.920;12.882;2022-12-18T06:30:16;49.17;;;24.40;;
52306;SDS011;38249;48.920;12.882;2022-12-18T06:32:44;21.05;;;9.88;;
52306;SDS011;38249;48.920;12.882;2022-12-18T06:35:11;21.63;;;9.93;;
52306;SDS011;38249;48.920;12.882;2022-12-18T06:37:37;14.65;;;8.20;;
52306;SDS011;38249;48.920;12.882;2022-12-18T06:40:04;14.57;;;6.60;;
52306;SDS011;38249;48.920;12.882;2022-12-18T06:42:32;9.75;;;5.93;;
52306;SDS011;38249;48.920;12.882;2022-12-18T06:44:59;13.30;;;6.40;;
52306;SDS011;38249;48.920;12.882;2022-12-18T06:47:25;10.27;;;6.68;;
52306;SDS011;38249;48.920;12.882;2022-12-18T06:49:53;10.65;;;6.68;;
52306;SDS011;38249;48.920;12.882;2022-12-18T06:52:20;17.00;;;8.43;;
52306;SDS011;38249;48.920;12.882;2022-12-18T06:54:46;15.88;;;8.40;;
52306;SDS011;38249;48.920;12.882;2022-12-18T06:57:13;17.60;;;8.50;;
52306;SDS011;38249;48.920;12.882;2022-12-18T06:59:39;21.45;;;11.48;;
52306;SDS011;38249;48.920;12.882;2022-12-18T07:02:06;20.77;;;10.25;;
52306;SDS011;38249;48.920;12.882;2022-12-18T07:04:32;14.02;;;8.45;;
52306;SDS011;38249;48.920;12.882;2022-12-18T07:07:00;12.40;;;7.20;;
52306;SDS011;38249;48.920;12.882;2022-12-18T07:09:27;13.43;;;7.70;;
52306;SDS011;38249;48.920;12.882;2022-12-18T07:11:53;17.67;;;9.30;;
52306;SDS011;38249;48.920;12.882;2022-12-18T07:14:20;17.83;;;9.50;;
52306;SDS011;38249;48.920;12.882;2022-12-18T07:16:47;18.90;;;9.65;;
52306;SDS011;38249;48.920;12.882;2022-12-18T07:19:13;20.73;;;9.13;;
52306;SDS011;38249;48.920;12.882;2022-12-18T07:21:40;15.60;;;8.05;;
52306;SDS011;38249;48.920;12.882;2022-12-18T07:24:08;17.08;;;8.23;;
52306;SDS011;38249;48.920;12.882;2022-12-18T07:26:34;24.17;;;14.65;;
52306;SDS011;38249;48.920;12.882;2022-12-18T07:29:01;23.70;;;12.82;;
52306;SDS011;38249;48.920;12.882;2022-12-18T07:31:27;22.67;;;11.25;;
52306;SDS011;38249;48.920;12.882;2022-12-18T07:33:54;21.08;;;10.82;;
52306;SDS011;38249;48.920;12.882;2022-12-18T07:36:21;21.95;;;10.52;;
52306;SDS011;38249;48.920;12.882;2022-12-18T07:38:48;42.75;;;20.90;;
52306;SDS011;38249;48.920;12.882;2022-12-18T07:41:16;34.45;;;16.77;;
52306;SDS011;38249;48.920;12.882;2022-12-18T07:43:43;29.40;;;14.52;;
52306;SDS011;38249;48.920;12.882;2022-12-18T07:46:11;28.15;;;15.25;;
52306;SDS011;38249;48.920;12.882;2022-12-18T07:48:39;29.02;;;15.23;;
52306;SDS011;38249;48.920;12.882;2022-12-18T07:51:06;20.38;;;10.55;;
52306;SDS011;38249;48.920;12.882;2022-12-18T07:53:33;18.27;;;9.98;;
52306;SDS011;38249;48.920;12.882;2022-12-18T07:56:01;22.23;;;12.07;;
52306;SDS011;38249;48.920;12.882;2022-12-18T07:58:32;47.78;;;22.40;;
52306;SDS011;38249;48.920;12.882;2022-12-18T08:01:02;40.08;;;21.58;;
52306;SDS011;38249;48.920;12.882;2022-12-18T08:03:30;51.20;;;26.73;;
52306;SDS011;38249;48.920;12.882;2022-12-18T08:05:58;62.03;;;28.63;;
52306;SDS011;38249;48.920;12.882;2022-12-18T08:08:25;45.20;;;23.40;;
52306;SDS011;38249;48.920;12.882;2022-12-18T08:10:52;37.22;;;19.42;;
52306;SDS011;38249;48.920;12.882;2022-12-18T08:13:18;37.75;;;19.80;;
52306;SDS011;38249;48.920;12.882;2022-12-18T08:15:46;27.70;;;12.45;;
52306;SDS011;38249;48.920;12.882;2022-12-18T08:18:13;24.52;;;12.82;;
52306;SDS011;38249;48.920;12.882;2022-12-18T08:20:42;20.63;;;12.57;;
52306;SDS011;38249;48.920;12.882;2022-12-18T08:23:09;30.45;;;15.50;;
52306;SDS011;38249;48.920;12.882;2022-12-18T08:25:35;36.72;;;19.85;;
52306;SDS011;38249;48.920;12.882;2022-12-18T08:28:02;44.97;;;23.75;;
52306;SDS011;38249;48.920;12.882;2022-12-18T08:30:29;31.27;;;16.90;;
52306;SDS011;38249;48.920;12.882;2022-12-18T08:32:57;28.60;;;13.93;;
52306;SDS011;38249;48.920;12.882;2022-12-18T08:35:24;31.67;;;13.93;;
52306;SDS011;38249;48.920;12.882;2022-12-18T08:37:51;30.00;;;13.98;;
52306;SDS011;38249;48.920;12.882;2022-12-18T08:40:18;29.52;;;14.32;;
52306;SDS011;38249;48.920;12.882;2022-12-18T08:42:44;25.50;;;11.95;;
52306;SDS011;38249;48.920;12.882;2022-12-18T08:45:34;23.27;;;10.63;;
52306;SDS011;38249;48.920;12.882;2022-12-18T08:48:02;20.00;;;10.35;;
52306;SDS011;38249;48.920;12.882;2022-12-18T08:50:29;25.42;;;12.18;;
52306;SDS011;38249;48.920;12.882;2022-12-18T08:52:55;28.65;;;14.25;;
52306;SDS011;38249;48.920;12.882;2022-12-18T08:55:22;55.17;;;30.10;;
52306;SDS011;38249;48.920;12.882;2022-12-18T08:57:48;35.97;;;19.88;;
52306;SDS011;38249;48.920;12.882;2022-12-18T09:00:16;62.13;;;38.72;;
52306;SDS011;38249;48.920;12.882;2022-12-18T09:02:43;45.00;;;24.73;;
52306;SDS011;38249;48.920;12.882;2022-12-18T09:05:11;48.13;;;24.65;;
52306;SDS011;38249;48.920;12.882;2022-12-18T09:07:37;38.28;;;19.70;;
52306;SDS011;38249;48.920;12.882;2022-12-18T09:10:04;39.95;;;21.83;;
52306;SDS011;38249;48.920;12.882;2022-12-18T09:12:31;40.15;;;19.98;;
52306;SDS011;38249;48.920;12.882;2022-12-18T09:14:58;38.20;;;20.52;;
52306;SDS011;38249;48.920;12.882;2022-12-18T09:17:24;34.97;;;19.88;;
52306;SDS011;38249;48.920;12.882;2022-12-18T09:19:51;43.35;;;24.17;;
52306;SDS011;38249;48.920;12.882;2022-12-18T09:22:19;33.50;;;19.33;;
52306;SDS011;38249;48.920;12.882;2022-12-18T09:24:45;35.67;;;18.83;;
52306;SDS011;38249;48.920;12.882;2022-12-18T09:27:12;35.28;;;18.38;;
52306;SDS011;38249;48.920;12.882;2022-12-18T09:29:38;33.00;;;19.38;;
52306;SDS011;38249;48.920;12.882;2022-12-18T09:32:05;30.88;;;16.27;;
52306;SDS011;38249;48.920;12.882;2022-12-18T09:34:32;50.30;;;25.33;;
52306;SDS011;38249;48.920;12.882;2022-12-18T09:36:58;26.75;;;14.25;;
52306;SDS011;38249;48.920;12.882;2022-12-18T09:39:26;31.02;;;14.90;;
52306;SDS011;38249;48.920;12.882;2022-12-18T09:41:53;33.42;;;15.95;;
52306;SDS011;38249;48.920;12.882;2022-12-18T09:44:23;27.63;;;14.48;;
52306;SDS011;38249;48.920;12.882;2022-12-18T09:46:58;25.88;;;13.73;;
52306;SDS011;38249;48.920;12.882;2022-12-18T09:49:31;24.25;;;13.18;;
52306;SDS011;38249;48.920;12.882;2022-12-18T09:52:02;26.73;;;14.48;;
52306;SDS011;38249;48.920;12.882;2022-12-18T09:54:36;35.13;;;20.20;;
52306;SDS011;38249;48.920;12.882;2022-12-18T09:57:05;42.97;;;23.27;;
52306;SDS011;38249;48.920;12.882;2022-12-18T09:59:39;31.75;;;20.20;;
52306;SDS011;38249;48.920;12.882;2022-12-18T10:02:14;40.80;;;25.13;;
52306;SDS011;38249;48.920;12.882;2022-12-18T10:04:42;38.90;;;21.63;;
52306;SDS011;38249;48.920;12.882;2022-12-18T10:07:11;28.48;;;16.30;;
52306;SDS011;38249;48.920;12.882;2022-12-18T10:09:44;26.27;;;16.15;;
52306;SDS011;38249;48.920;12.882;2022-12-18T10:12:21;35.13;;;18.15;;
52306;SDS011;38249;48.920;12.882;2022-12-18T10:14:54;27.77;;;15.88;;
52306;SDS011;38249;48.920;12.882;2022-12-18T10:17:32;25.90;;;14.40;;
52306;SDS011;38249;48.920;12.882;2022-12-18T10:20:09;28.23;;;17.00;;
52306;SDS011;38249;48.920;12.882;2022-12-18T10:22:44;30.02;;;15.88;;
52306;SDS011;38249;48.920;12.882;2022-12-18T10:25:19;30.00;;;17.00;;
52306;SDS011;38249;48.920;12.882;2022-12-18T10:27:51;28.38;;;17.33;;
52306;SDS011;38249;48.920;12.882;2022-12-18T10:30:22;24.70;;;13.48;;
52306;SDS011;38249;48.920;12.882;2022-12-18T10:32:49;24.35;;;14.70;;
52306;SDS011;38249;48.920;12.882;2022-12-18T10:35:18;29.00;;;22.10;;
52306;SDS011;38249;48.920;12.882;2022-12-18T10:38:05;37.05;;;33.17;;
52306;SDS011;38249;48.920;12.882;2022-12-18T10:40:36;26.55;;;15.93;;
52306;SDS011;38249;48.920;12.882;2022-12-18T10:43:16;24.38;;;13.68;;
52306;SDS011;38249;48.920;12.882;2022-12-18T10:48:46;24.35;;;14.30;;
52306;SDS011;38249;48.920;12.882;2022-12-18T10:51:20;28.75;;;14.63;;
52306;SDS011;38249;48.920;12.882;2022-12-18T10:53:51;28.50;;;15.57;;
52306;SDS011;38249;48.920;12.882;2022-12-18T10:56:22;23.50;;;13.82;;
52306;SDS011;38249;48.920;12.882;2022-12-18T10:58:55;29.05;;;15.13;;
52306;SDS011;38249;48.920;12.882;2022-12-18T11:01:25;22.48;;;15.38;;
52306;SDS011;38249;48.920;12.882;2022-12-18T11:04:00;21.98;;;14.07;;
52306;SDS011;38249;48.920;12.882;2022-12-18T11:06:28;24.08;;;14.82;;
52306;SDS011;38249;48.920;12.882;2022-12-18T11:08:58;24.20;;;13.85;;
52306;SDS011;38249;48.920;12.882;2022-12-18T11:11:28;26.15;;;15.60;;
52306;SDS011;38249;48.920;12.882;2022-12-18T11:13:58;26.70;;;19.98;;
52306;SDS011;38249;48.920;12.882;2022-12-18T11:16:27;25.83;;;14.65;;
52306;SDS011;38249;48.920;12.882;2022-12-18T11:18:57;27.45;;;15.35;;
52306;SDS011;38249;48.920;12.882;2022-12-18T11:21:49;23.02;;;14.50;;
52306;SDS011;38249;48.920;12.882;2022-12-18T11:24:19;26.63;;;15.82;;
52306;SDS011;38249;48.920;12.882;2022-12-18T11:26:50;23.95;;;14.95;;
52306;SDS011;38249;48.920;12.882;2022-12-18T11:29:17;39.88;;;24.40;;
52306;SDS011;38249;48.920;12.882;2022-12-18T11:31:49;43.65;;;30.17;;
52306;SDS011;38249;48.920;12.882;2022-12-18T11:34:16;24.08;;;15.88;;
52306;SDS011;38249;48.920;12.882;2022-12-18T11:36:49;26.10;;;15.60;;
52306;SDS011;38249;48.920;12.882;2022-12-18T11:39:17;26.27;;;17.60;;
52306;SDS011;38249;48.920;12.882;2022-12-18T11:41:47;23.75;;;14.38;;
52306;SDS011;38249;48.920;12.882;2022-12-18T11:44:39;24.00;;;14.55;;
52306;SDS011;38249;48.920;12.882;2022-12-18T11:47:13;26.23;;;17.25;;
52306;SDS011;38249;48.920;12.882;2022-12-18T11:49:47;28.75;;;25.85;;
52306;SDS011;38249;48.920;12.882;2022-12-18T11:52:16;21.42;;;15.35;;
52306;SDS011;38249;48.920;12.882;2022-12-18T11:54:50;25.67;;;13.82;;
52306;SDS011;38249;48.920;12.882;2022-12-18T11:57:22;19.25;;;13.35;;
52306;SDS011;38249;48.920;12.882;2022-12-18T12:00:01;19.70;;;12.63;;
52306;SDS011;38249;48.920;12.882;2022-12-18T12:02:40;21.67;;;13.02;;
52306;SDS011;38249;48.920;12.882;2022-12-18T12:05:18;20.00;;;11.90;;
52306;SDS011;38249;48.920;12.882;2022-12-18T12:07:57;19.73;;;12.45;;
52306;SDS011;38249;48.920;12.882;2022-12-18T12:10:32;20.40;;;11.85;;
52306;SDS011;38249;48.920;12.882;2022-12-18T12:13:19;14.25;;;10.00;;
52306;SDS011;38249;48.920;12.882;2022-12-18T12:16:06;16.92;;;11.32;;
52306;SDS011;38249;48.920;12.882;2022-12-18T12:18:46;16.65;;;11.02;;
52306;SDS011;38249;48.920;12.882;2022-12-18T12:21:24;16.05;;;11.20;;
52306;SDS011;38249;48.920;12.882;2022-12-18T12:23:56;20.30;;;12.70;;
52306;SDS011;38249;48.920;12.882;2022-12-18T12:26:33;16.73;;;10.95;;
52306;SDS011;38249;48.920;12.882;2022-12-18T12:29:13;16.77;;;10.35;;
52306;SDS011;38249;48.920;12.882;2022-12-18T12:31:57;18.10;;;10.80;;
52306;SDS011;38249;48.920;12.882;2022-12-18T12:34:34;18.45;;;11.32;;
52306;SDS011;38249;48.920;12.882;2022-12-18T12:37:15;19.50;;;12.18;;
52306;SDS011;38249;48.920;12.882;2022-12-18T12:39:51;22.10;;;12.98;;
52306;SDS011;38249;48.920;12.882;2022-12-18T12:42:23;20.35;;;12.63;;
52306;SDS011;38249;48.920;12.882;2022-12-18T12:45:16;17.75;;;12.05;;
52306;SDS011;38249;48.920;12.882;2022-12-18T12:47:47;20.20;;;12.68;;
52306;SDS011;38249;48.920;12.882;2022-12-18T12:50:17;23.05;;;14.48;;
52306;SDS011;38249;48.920;12.882;2022-12-18T12:52:46;22.85;;;15.40;;
52306;SDS011;38249;48.920;12.882;2022-12-18T12:55:17;19.35;;;13.57;;
52306;SDS011;38249;48.920;12.882;2022-12-18T12:57:48;20.52;;;13.15;;
52306;SDS011;38249;48.920;12.882;2022-12-18T13:00:24;22.30;;;14.27;;
52306;SDS011;38249;48.920;12.882;2022-12-18T13:02:59;21.00;;;12.93;;
52306;SDS011;38249;48.920;12.882;2022-12-18T13:05:34;20.60;;;12.75;;
52306;SDS011;38249;48.920;12.882;2022-12-18T13:08:07;18.35;;;11.70;;
52306;SDS011;38249;48.920;12.882;2022-12-18T13:10:36;21.40;;;12.38;;
52306;SDS011;38249;48.920;12.882;2022-12-18T13:13:04;20.02;;;12.75;;
52306;SDS011;38249;48.920;12.882;2022-12-18T13:15:36;20.35;;;12.50;;
52306;SDS011;38249;48.920;12.882;2022-12-18T13:18:16;18.08;;;12.20;;
52306;SDS011;38249;48.920;12.882;2022-12-18T13:20:44;21.80;;;13.43;;
52306;SDS011;38249;48.920;12.882;2022-12-18T13:23:23;21.20;;;14.32;;
52306;SDS011;38249;48.920;12.882;2022-12-18T13:25:53;20.05;;;12.93;;
52306;SDS011;38249;48.920;12.882;2022-12-18T13:28:21;19.55;;;12.55;;
52306;SDS011;38249;48.920;12.882;2022-12-18T13:31:11;19.98;;;11.80;;
52306;SDS011;38249;48.920;12.882;2022-12-18T13:33:39;30.25;;;16.33;;
52306;SDS011;38249;48.920;12.882;2022-12-18T13:36:15;20.20;;;13.13;;
52306;SDS011;38249;48.920;12.882;2022-12-18T13:41:49;27.70;;;18.00;;
52306;SDS011;38249;48.920;12.882;2022-12-18T13:44:29;28.67;;;18.40;;
52306;SDS011;38249;48.920;12.882;2022-12-18T13:47:00;21.95;;;14.05;;
52306;SDS011;38249;48.920;12.882;2022-12-18T13:49:30;29.83;;;17.98;;
52306;SDS011;38249;48.920;12.882;2022-12-18T13:52:03;22.58;;;13.32;;
52306;SDS011;38249;48.920;12.882;2022-12-18T13:54:43;21.98;;;14.05;;
52306;SDS011;38249;48.920;12.882;2022-12-18T13:57:24;24.45;;;15.43;;
52306;SDS011;38249;48.920;12.882;2022-12-18T13:59:53;21.13;;;14.00;;
52306;SDS011;38249;48.920;12.882;2022-12-18T14:02:22;23.83;;;13.45;;
52306;SDS011;38249;48.920;12.882;2022-12-18T14:04:50;23.67;;;14.45;;
52306;SDS011;38249;48.920;12.882;2022-12-18T14:07:18;20.60;;;13.10;;
52306;SDS011;38249;48.920;12.882;2022-12-18T14:09:48;25.00;;;13.88;;
52306;SDS011;38249;48.920;12.882;2022-12-18T14:12:18;28.50;;;14.35;;
52306;SDS011;38249;48.920;12.882;2022-12-18T14:15:06;25.90;;;15.18;;
52306;SDS011;38249;48.920;12.882;2022-12-18T14:17:48;25.83;;;15.45;;
52306;SDS011;38249;48.920;12.882;2022-12-18T14:20:15;30.45;;;15.80;;
52306;SDS011;38249;48.920;12.882;2022-12-18T14:22:43;27.77;;;16.85;;
52306;SDS011;38249;48.920;12.882;2022-12-18T14:25:17;22.35;;;13.00;;
52306;SDS011;38249;48.920;12.882;2022-12-18T14:27:46;26.38;;;14.00;;
52306;SDS011;38249;48.920;12.882;2022-12-18T14:30:23;32.28;;;16.92;;
52306;SDS011;38249;48.920;12.882;2022-12-18T14:33:01;31.33;;;17.02;;
52306;SDS011;38249;48.920;12.882;2022-12-18T14:35:29;30.85;;;16.92;;